Time;durP1;ratioP1;P1;durP2;ratioP2;P2;SDS_P1;SDS_P2;PMS_P1;PMS_P2;Temp;Humidity;BMP_temperature;BMP_pressure;BME280_temperature;BME280_humidity;BME280_pressure;Samples;Min_cycle;Max_cycle;Signal;HPM_P1;HPM_P2
2021/03/05 00:00:13;;;;;;;29.33;13.13;;;1.20;94.10;;;;;;5052584;28;20060;-73
2021/03/05 00:02:40;;;;;;;19.23;12.07;;;1.20;94.20;;;;;;5064130;28;20126;-72
2021/03/05 00:05:07;;;;;;;31.03;13.70;;;1.20;94.20;;;;;;5060720;28;20043;-72
2021/03/05 00:07:34;;;;;;;20.23;12.33;;;1.20;94.20;;;;;;5072861;28;20067;-72
2021/03/05 00:10:00;;;;;;;20.20;11.33;;;1.20;94.30;;;;;;5072530;28;20032;-72
2021/03/05 00:12:27;;;;;;;24.83;12.57;;;1.10;94.20;;;;;;5055658;28;20098;-79
2021/03/05 00:14:53;;;;;;;23.30;12.77;;;1.10;94.30;;;;;;5072095;28;20036;-78
2021/03/05 00:17:19;;;;;;;23.70;12.27;;;1.20;94.30;;;;;;5059884;28;20036;-79
2021/03/05 00:19:45;;;;;;;18.83;11.87;;;1.10;94.30;;;;;;5062961;28;20036;-79
2021/03/05 00:22:11;;;;;;;27.33;13.53;;;1.10;94.30;;;;;;5059901;28;20047;-79
2021/03/05 00:24:36;;;;;;;26.77;12.50;;;1.10;94.20;;;;;;5045969;28;20775;-79
2021/03/05 00:27:03;;;;;;;23.00;13.00;;;1.10;94.30;;;;;;5069474;28;20516;-79
2021/03/05 00:29:29;;;;;;;24.57;13.43;;;1.00;94.40;;;;;;5056418;28;20064;-79
2021/03/05 00:31:55;;;;;;;17.53;10.00;;;1.00;94.30;;;;;;5075066;28;20105;-79
2021/03/05 00:34:21;;;;;;;20.53;11.70;;;1.00;94.40;;;;;;5068759;28;20143;-79
2021/03/05 00:36:47;;;;;;;22.03;11.70;;;1.00;94.30;;;;;;5034478;28;20115;-79
2021/03/05 00:39:14;;;;;;;20.50;10.97;;;0.90;94.80;;;;;;5043598;28;20049;-79
2021/03/05 00:41:40;;;;;;;23.30;11.47;;;0.90;94.40;;;;;;5048935;28;20049;-79
2021/03/05 00:44:06;;;;;;;22.40;11.70;;;0.90;94.40;;;;;;5049425;28;20055;-79
2021/03/05 00:46:32;;;;;;;20.90;11.97;;;0.90;94.40;;;;;;5023123;28;20041;-78
2021/03/05 00:48:58;;;;;;;22.97;11.73;;;0.90;94.30;;;;;;5041941;28;20468;-72
2021/03/05 00:51:24;;;;;;;21.97;10.47;;;0.90;94.40;;;;;;5044335;28;20116;-72
2021/03/05 00:53:51;;;;;;;20.50;10.77;;;0.90;94.40;;;;;;5033113;28;20044;-72
2021/03/05 00:56:17;;;;;;;19.73;11.03;;;0.90;94.40;;;;;;5031220;28;20262;-72
2021/03/05 00:58:43;;;;;;;21.20;10.00;;;0.90;94.40;;;;;;5052721;28;20048;-72
2021/03/05 01:01:09;;;;;;;22.87;11.17;;;0.80;94.40;;;;;;5046680;28;20048;-72
2021/03/05 01:03:37;;;;;;;18.63;10.23;;;0.80;94.40;;;;;;5040895;28;20036;-72
2021/03/05 01:06:04;;;;;;;23.40;11.03;;;0.90;94.40;;;;;;5054808;28;20044;-72
2021/03/05 01:08:30;;;;;;;23.67;10.80;;;0.80;94.50;;;;;;5032730;28;20037;-72
2021/03/05 01:10:56;;;;;;;18.17;9.63;;;0.80;94.50;;;;;;5019462;28;20261;-72
2021/03/05 01:13:22;;;;;;;24.53;11.30;;;0.80;94.40;;;;;;5039671;28;20041;-73
2021/03/05 01:15:51;;;;;;;26.47;12.00;;;0.80;94.50;;;;;;5017473;28;20047;-73
2021/03/05 01:18:16;;;;;;;19.53;9.97;;;0.80;94.50;;;;;;5049355;28;20064;-72
2021/03/05 01:20:44;;;;;;;21.20;10.20;;;0.70;94.50;;;;;;5038655;28;20484;-79
2021/03/05 01:23:15;;;;;;;22.02;9.77;;;0.70;94.50;;;;;;5025174;28;20052;-79
2021/03/05 01:25:41;;;;;;;18.30;9.40;;;0.70;94.40;;;;;;5053650;28;20041;-79
2021/03/05 01:28:07;;;;;;;25.00;11.97;;;0.70;94.50;;;;;;5057421;28;20525;-79
2021/03/05 01:30:33;;;;;;;32.03;11.97;;;0.60;94.30;;;;;;5041036;28;20572;-79
2021/03/05 01:33:00;;;;;;;20.40;9.97;;;0.60;94.80;;;;;;5038507;28;20044;-79
2021/03/05 01:35:28;;;;;;;17.87;8.37;;;0.60;94.60;;;;;;5044590;28;20131;-78
2021/03/05 01:37:54;;;;;;;22.03;10.30;;;0.60;94.50;;;;;;5031901;28;20040;-79
2021/03/05 01:40:28;;;;;;;24.87;10.17;;;0.60;94.60;;;;;;5042343;28;20263;-79
2021/03/05 01:42:54;;;;;;;15.27;7.83;;;0.60;94.60;;;;;;5062398;28;20040;-79
2021/03/05 01:45:27;;;;;;;21.93;9.83;;;0.70;94.60;;;;;;5030391;28;20485;-78
2021/03/05 01:47:56;;;;;;;21.83;11.30;;;0.60;94.60;;;;;;5026383;28;20060;-79
2021/03/05 01:50:32;;;;;;;29.57;11.63;;;0.50;94.50;;;;;;5049954;28;20047;-78
2021/03/05 01:53:06;;;;;;;24.27;10.67;;;0.60;94.60;;;;;;5045565;28;20044;-79
2021/03/05 01:55:33;;;;;;;28.07;11.33;;;0.60;94.70;;;;;;5063735;28;20123;-79
2021/03/05 01:58:00;;;;;;;20.43;9.23;;;0.70;94.70;;;;;;5066917;28;20093;-79
2021/03/05 02:00:43;;;;;;;24.03;9.60;;;0.60;94.70;;;;;;5041615;28;20033;-79
2021/03/05 02:03:09;;;;;;;18.47;8.93;;;0.50;94.80;;;;;;5061339;28;20123;-79
2021/03/05 02:05:37;;;;;;;18.73;8.50;;;0.60;94.80;;;;;;5038818;28;20063;-78
2021/03/05 02:08:04;;;;;;;16.60;8.37;;;0.50;94.60;;;;;;5045115;28;20063;-79
2021/03/05 02:10:30;;;;;;;20.17;9.03;;;0.50;94.70;;;;;;5064688;28;20037;-79
2021/03/05 02:12:57;;;;;;;19.57;8.43;;;0.50;94.70;;;;;;5043877;28;20498;-79
2021/03/05 02:15:23;;;;;;;18.60;9.00;;;0.50;94.70;;;;;;5062266;28;20491;-78
2021/03/05 02:17:59;;;;;;;19.10;9.13;;;0.50;94.80;;;;;;5065152;28;20036;-79
2021/03/05 02:20:59;;;;;;;15.43;8.47;;;0.50;94.80;;;;;;5061796;28;20040;-79
2021/03/05 02:23:47;;;;;;;18.50;8.63;;;0.40;94.70;;;;;;5061700;28;20063;-79
2021/03/05 02:26:18;;;;;;;20.33;8.43;;;0.40;94.70;;;;;;5045362;28;20466;-79
2021/03/05 02:29:13;;;;;;;14.37;8.13;;;0.40;94.70;;;;;;5058429;28;20036;-79
2021/03/05 02:31:44;;;;;;;15.03;7.40;;;0.40;94.70;;;;;;5038887;28;20037;-78
2021/03/05 02:34:17;;;;;;;13.43;7.23;;;0.40;94.70;;;;;;5026973;28;20080;-78
2021/03/05 02:37:10;;;;;;;15.63;8.10;;;0.40;94.80;;;;;;5050107;28;20884;-72
2021/03/05 02:39:42;;;;;;;20.97;8.07;;;0.40;94.80;;;;;;5060620;28;20120;-72
2021/03/05 02:42:10;;;;;;;17.23;8.20;;;0.40;94.70;;;;;;5058198;28;20052;-72
2021/03/05 02:44:51;;;;;;;24.60;8.87;;;0.40;94.70;;;;;;5049524;28;20126;-73
2021/03/05 02:47:19;;;;;;;;;;;0.40;94.80;;;;;;5044268;28;20079;-73
2021/03/05 02:49:47;;;;;;;18.83;8.27;;;0.40;94.70;;;;;;5055975;28;19971;-73
2021/03/05 02:52:17;;;;;;;19.33;9.33;;;0.30;94.80;;;;;;5056199;28;20408;-73
2021/03/05 02:54:45;;;;;;;19.80;9.55;;;0.40;94.80;;;;;;5049460;28;20047;-72
2021/03/05 02:57:16;;;;;;;24.03;9.37;;;0.30;94.60;;;;;;5042335;28;20532;-72
2021/03/05 02:59:44;;;;;;;25.23;10.47;;;0.30;94.80;;;;;;5038946;28;20059;-73
2021/03/05 03:02:10;;;;;;;26.97;10.30;;;0.30;94.90;;;;;;5037165;28;20376;-73
2021/03/05 03:04:41;;;;;;;19.77;8.60;;;0.30;94.90;;;;;;5059346;28;20060;-73
2021/03/05 03:07:09;;;;;;;23.73;9.35;;;0.20;94.90;;;;;;5041418;28;20040;-73
2021/03/05 03:09:36;;;;;;;22.57;9.93;;;0.30;94.80;;;;;;5055577;28;20056;-73
2021/03/05 03:12:03;;;;;;;24.07;10.77;;;0.20;94.80;;;;;;5048697;28;20040;-73
2021/03/05 03:14:29;;;;;;;21.87;9.40;;;0.20;94.80;;;;;;5066279;28;20041;-72
2021/03/05 03:16:56;;;;;;;20.83;9.50;;;0.10;94.70;;;;;;5045214;28;20047;-72
2021/03/05 03:19:24;;;;;;;18.83;7.80;;;0.10;94.70;;;;;;5045771;28;20048;-73
2021/03/05 03:21:50;;;;;;;18.37;7.93;;;0.00;94.60;;;;;;5047032;28;20094;-73
2021/03/05 03:24:16;;;;;;;13.77;7.00;;;0.10;94.80;;;;;;5062257;28;20040;-73
2021/03/05 03:26:42;;;;;;;18.17;8.17;;;-0.10;94.80;;;;;;5063965;28;20037;-73
2021/03/05 03:29:11;;;;;;;18.43;8.07;;;-0.20;94.80;;;;;;5029035;28;20496;-73
2021/03/05 03:31:39;;;;;;;18.17;7.97;;;-0.20;94.80;;;;;;5064730;28;20041;-73
2021/03/05 03:34:05;;;;;;;15.47;7.73;;;-0.20;94.80;;;;;;5059249;28;20182;-74
2021/03/05 03:36:38;;;;;;;16.13;8.00;;;-0.20;94.90;;;;;;5066799;28;20535;-73
2021/03/05 03:39:09;;;;;;;18.60;7.90;;;-0.20;94.80;;;;;;5067144;28;20047;-73
2021/03/05 03:41:38;;;;;;;18.45;7.15;;;-0.20;94.80;;;;;;5042491;28;20044;-73
2021/03/05 03:44:06;;;;;;;19.93;7.97;;;-0.30;94.70;;;;;;5056247;28;20043;-73
2021/03/05 03:46:34;;;;;;;16.70;7.40;;;-0.30;94.90;;;;;;5064793;28;20367;-73
2021/03/05 03:49:06;;;;;;;19.17;8.13;;;-0.30;95.00;;;;;;5081218;28;20089;-73
2021/03/05 03:51:39;;;;;;;18.20;7.07;;;-0.30;94.80;;;;;;5065302;28;20090;-73
2021/03/05 03:54:05;;;;;;;14.07;7.67;;;-0.20;94.90;;;;;;5064374;28;20041;-74
2021/03/05 03:56:34;;;;;;;16.87;6.50;;;-0.20;95.00;;;;;;5077712;28;20522;-73
2021/03/05 03:59:02;;;;;;;15.80;7.00;;;-0.20;95.00;;;;;;5065027;28;20032;-73
2021/03/05 04:01:31;;;;;;;14.57;6.67;;;-0.20;95.00;;;;;;5061917;28;20072;-73
2021/03/05 04:03:59;;;;;;;15.20;6.93;;;-0.20;94.80;;;;;;5050453;28;20570;-73
2021/03/05 04:06:26;;;;;;;15.77;7.10;;;-0.10;94.80;;;;;;5079574;28;20038;-73
2021/03/05 04:08:56;;;;;;;19.47;6.70;;;-0.20;94.80;;;;;;5077102;28;20460;-73
2021/03/05 04:11:23;;;;;;;19.83;7.18;;;-0.10;94.80;;;;;;5045525;28;20398;-73
2021/03/05 04:13:50;;;;;;;14.27;6.10;;;-0.20;94.70;;;;;;5055457;28;20067;-73
2021/03/05 04:16:16;;;;;;;15.33;5.80;;;-0.30;94.80;;;;;;5068923;28;20036;-79
2021/03/05 04:18:42;;;;;;;16.83;6.03;;;-0.30;94.80;;;;;;5049655;28;20440;-79
2021/03/05 04:21:13;;;;;;;17.13;5.83;;;-0.30;94.80;;;;;;5073959;28;20036;-79
2021/03/05 04:23:39;;;;;;;13.97;5.27;;;-0.20;94.80;;;;;;5081050;28;20479;-80
2021/03/05 04:26:05;;;;;;;15.57;5.57;;;-0.30;94.60;;;;;;5044354;28;20037;-79
2021/03/05 04:28:31;;;;;;;12.60;5.00;;;-0.30;94.70;;;;;;5052799;28;20448;-79
2021/03/05 04:30:57;;;;;;;17.27;5.27;;;-0.30;94.70;;;;;;5056691;28;20060;-79
2021/03/05 04:33:23;;;;;;;14.63;4.27;;;-0.30;94.70;;;;;;5038363;28;20059;-79
2021/03/05 04:35:49;;;;;;;11.73;4.13;;;-0.30;94.60;;;;;;5073340;28;20578;-79
2021/03/05 04:38:15;;;;;;;10.70;3.83;;;-0.30;94.60;;;;;;5072946;28;20115;-79
2021/03/05 04:40:41;;;;;;;11.43;3.93;;;-0.20;94.50;;;;;;5045392;28;20518;-79
2021/03/05 04:43:07;;;;;;;15.83;4.03;;;-0.20;94.50;;;;;;5073791;28;20060;-79
2021/03/05 04:45:34;;;;;;;11.13;3.63;;;-0.40;94.40;;;;;;5032805;28;20050;-79
2021/03/05 04:48:00;;;;;;;10.17;2.70;;;-0.40;94.30;;;;;;5083269;28;20083;-74
2021/03/05 04:50:26;;;;;;;10.77;3.67;;;-0.40;94.40;;;;;;5067233;28;20494;-72
2021/03/05 04:52:52;;;;;;;8.43;2.97;;;-0.40;94.40;;;;;;5079075;28;20044;-73
2021/03/05 04:55:18;;;;;;;10.97;3.23;;;-0.50;94.30;;;;;;5052156;28;20036;-72
2021/03/05 04:57:46;;;;;;;11.40;2.83;;;-0.50;94.30;;;;;;5076581;28;20040;-73
2021/03/05 05:00:14;;;;;;;11.17;2.60;;;-0.50;94.30;;;;;;5064800;28;20044;-73
2021/03/05 05:02:40;;;;;;;12.93;3.60;;;-0.50;94.20;;;;;;5018675;28;20051;-73
2021/03/05 05:05:06;;;;;;;8.50;2.20;;;-0.50;94.30;;;;;;5081642;28;20036;-73
2021/03/05 05:07:32;;;;;;;8.50;2.13;;;-0.50;94.20;;;;;;5068159;28;20036;-73
2021/03/05 05:09:57;;;;;;;7.03;2.07;;;-0.50;94.30;;;;;;5067095;28;20043;-73
2021/03/05 05:12:23;;;;;;;9.87;2.33;;;-0.50;94.20;;;;;;5070676;28;20046;-73
2021/03/05 05:14:49;;;;;;;11.70;2.40;;;-0.50;94.10;;;;;;5070824;28;20722;-73
2021/03/05 05:17:15;;;;;;;8.57;2.20;;;-0.50;94.10;;;;;;5031907;28;20421;-73
2021/03/05 05:19:42;;;;;;;13.03;2.30;;;-0.50;94.00;;;;;;5061189;28;20100;-73
2021/03/05 05:22:08;;;;;;;8.57;2.30;;;-0.60;94.10;;;;;;5079066;28;20070;-73
2021/03/05 05:24:37;;;;;;;9.73;2.37;;;-0.60;94.10;;;;;;5067547;28;20067;-73
2021/03/05 05:27:04;;;;;;;9.03;2.50;;;-0.60;94.10;;;;;;5073742;28;20548;-73
2021/03/05 05:29:30;;;;;;;14.30;2.47;;;-0.60;93.90;;;;;;5036307;28;20248;-78
2021/03/05 05:31:56;;;;;;;10.60;1.90;;;-0.60;94.00;;;;;;5047742;28;20533;-78
2021/03/05 05:34:21;;;;;;;14.23;2.70;;;-0.60;94.00;;;;;;5061680;28;20048;-73
2021/03/05 05:36:47;;;;;;;13.10;2.47;;;-0.60;93.90;;;;;;5044068;28;20087;-73
2021/03/05 05:39:13;;;;;;;8.87;2.03;;;-0.50;93.90;;;;;;5064408;28;20454;-73
2021/03/05 05:41:40;;;;;;;10.43;2.17;;;-0.50;93.70;;;;;;5051333;28;20044;-73
2021/03/05 05:44:09;;;;;;;9.67;2.23;;;-0.40;93.50;;;;;;5062762;28;20467;-73
2021/03/05 05:46:35;;;;;;;7.70;1.97;;;-0.40;93.40;;;;;;5048930;28;20039;-73
2021/03/05 05:49:03;;;;;;;8.70;1.83;;;-0.40;93.30;;;;;;5087014;28;20115;-73
2021/03/05 05:51:34;;;;;;;8.33;1.90;;;-0.40;93.30;;;;;;5044230;28;20051;-72
2021/03/05 05:54:07;;;;;;;8.10;1.70;;;-0.50;93.30;;;;;;5079278;28;20041;-73
2021/03/05 05:56:41;;;;;;;6.27;1.70;;;-0.50;93.50;;;;;;5072435;28;20032;-72
2021/03/05 05:59:07;;;;;;;9.17;2.30;;;-0.50;93.50;;;;;;5080709;28;20048;-72
2021/03/05 06:01:34;;;;;;;6.83;1.60;;;-0.60;93.30;;;;;;5081947;28;20044;-72
2021/03/05 06:04:02;;;;;;;6.73;1.50;;;-0.60;93.30;;;;;;5051771;28;20040;-73
2021/03/05 06:06:30;;;;;;;7.73;1.43;;;-0.70;93.20;;;;;;5067790;28;20043;-72
2021/03/05 06:09:00;;;;;;;10.13;2.00;;;-0.70;93.20;;;;;;5053574;28;20050;-78
2021/03/05 06:11:47;;;;;;;11.00;2.20;;;-0.80;93.30;;;;;;5062105;28;20036;-78
2021/03/05 06:14:13;;;;;;;11.20;2.17;;;-0.90;93.20;;;;;;5060434;28;20086;-78
2021/03/05 06:16:53;;;;;;;7.90;1.87;;;-0.90;93.40;;;;;;5079172;28;20043;-73
2021/03/05 06:19:22;;;;;;;10.00;1.73;;;-0.90;93.30;;;;;;5044509;28;20040;-73
2021/03/05 06:21:48;;;;;;;10.80;2.20;;;-0.90;93.70;;;;;;5066435;28;20456;-73
2021/03/05 06:24:14;;;;;;;12.20;1.87;;;-0.90;93.40;;;;;;5038038;28;20106;-73
2021/03/05 06:26:54;;;;;;;8.80;1.50;;;-0.90;93.30;;;;;;5077059;28;20059;-73
2021/03/05 06:29:23;;;;;;;10.43;1.85;;;-0.90;93.30;;;;;;5064838;28;20051;-73
2021/03/05 06:32:01;;;;;;;9.07;1.77;;;-0.90;93.30;;;;;;5062549;28;20044;-73
2021/03/05 06:34:28;;;;;;;8.50;2.47;;;-0.90;93.20;;;;;;5078460;28;20487;-73
2021/03/05 06:37:03;;;;;;;9.70;1.80;;;-0.80;93.20;;;;;;5080573;28;20134;-73
2021/03/05 06:39:30;;;;;;;10.63;2.20;;;-0.60;93.20;;;;;;5064850;28;20048;-73
2021/03/05 06:42:02;;;;;;;5.07;1.10;;;-0.60;93.00;;;;;;5042972;28;20043;-73
2021/03/05 06:44:28;;;;;;;5.97;1.37;;;-0.50;93.00;;;;;;5072996;28;20123;-72
2021/03/05 06:46:55;;;;;;;10.53;1.27;;;-0.40;92.70;;;;;;5056748;28;20538;-73
2021/03/05 06:49:21;;;;;;;7.60;1.50;;;-0.30;92.50;;;;;;5072568;28;20036;-73
2021/03/05 06:51:56;;;;;;;7.67;1.60;;;-0.20;92.30;;;;;;5064556;28;20043;-73
2021/03/05 06:54:32;;;;;;;8.57;1.37;;;-0.10;92.00;;;;;;5058724;28;20058;-73
2021/03/05 06:56:58;;;;;;;6.10;1.23;;;0.00;91.70;;;;;;5062056;28;20173;-73
2021/03/05 06:59:25;;;;;;;9.33;1.73;;;0.20;91.40;;;;;;5046477;28;20044;-73
2021/03/05 07:01:52;;;;;;;9.37;1.30;;;0.20;91.20;;;;;;5063140;28;20478;-73
2021/03/05 07:04:19;;;;;;;7.30;1.50;;;0.20;91.10;;;;;;5083399;28;20050;-73
2021/03/05 07:06:46;;;;;;;8.00;1.90;;;0.20;91.10;;;;;;5064672;28;20040;-73
2021/03/05 07:09:36;;;;;;;5.20;1.30;;;0.10;91.20;;;;;;5063414;28;20090;-72
2021/03/05 07:12:11;;;;;;;9.97;1.63;;;0.20;91.40;;;;;;5067501;28;20040;-73
2021/03/05 07:14:40;;;;;;;7.80;1.50;;;0.20;91.40;;;;;;5063110;28;20036;-78
2021/03/05 07:17:06;;;;;;;5.23;1.23;;;0.20;91.60;;;;;;5073635;28;20166;-77
2021/03/05 07:19:34;;;;;;;7.33;1.43;;;0.20;91.60;;;;;;5055786;28;20044;-78
2021/03/05 07:22:01;;;;;;;6.67;1.83;;;0.20;91.70;;;;;;5059024;28;20056;-72
2021/03/05 07:24:34;;;;;;;7.10;1.67;;;0.30;91.60;;;;;;5025902;28;20048;-72
2021/03/05 07:27:02;;;;;;;7.37;1.73;;;0.40;91.20;;;;;;5025169;28;20686;-72
2021/03/05 07:29:45;;;;;;;3.83;1.60;;;0.50;90.90;;;;;;5074813;28;20033;-72
2021/03/05 07:32:14;;;;;;;9.67;1.73;;;0.60;90.80;;;;;;5065876;28;20522;-72
2021/03/05 07:34:49;;;;;;;8.03;1.23;;;0.60;90.90;;;;;;5062652;28;20075;-72
2021/03/05 07:37:18;;;;;;;5.83;1.07;;;0.70;91.20;;;;;;5078181;28;20052;-72
2021/03/05 07:39:49;;;;;;;5.37;1.30;;;0.80;91.20;;;;;;5041510;28;20060;-72
2021/03/05 07:42:18;;;;;;;8.17;1.63;;;0.90;91.00;;;;;;5054836;28;20040;-72
2021/03/05 07:44:45;;;;;;;10.03;1.80;;;1.00;90.60;;;;;;5074571;28;20406;-72
2021/03/05 07:47:15;;;;;;;11.10;1.40;;;1.10;90.70;;;;;;5069745;28;20196;-72
2021/03/05 07:49:42;;;;;;;10.90;1.50;;;1.20;90.40;;;;;;5076361;28;20039;-72
2021/03/05 07:52:09;;;;;;;5.83;1.27;;;1.30;90.40;;;;;;5077642;28;20040;-72
2021/03/05 07:54:46;;;;;;;6.67;1.00;;;1.40;90.40;;;;;;5063253;28;20482;-72
2021/03/05 07:57:18;;;;;;;4.73;1.13;;;1.50;89.90;;;;;;5078622;28;20433;-72
2021/03/05 07:59:46;;;;;;;4.33;1.13;;;1.60;89.10;;;;;;5062551;28;20063;-72
2021/03/05 08:02:13;;;;;;;8.23;1.50;;;1.80;88.70;;;;;;5064671;28;20471;-73
2021/03/05 08:05:25;;;;;;;4.43;1.10;;;1.80;88.40;;;;;;5052516;28;20036;-72
2021/03/05 08:08:18;;;;;;;4.93;1.23;;;2.00;87.70;;;;;;5067075;28;20052;-73
2021/03/05 08:11:05;;;;;;;8.73;1.43;;;2.20;87.70;;;;;;5060899;28;20035;-72
2021/03/05 08:16:29;;;;;;;4.97;1.17;;;2.70;86.00;;;;;;5080313;28;20434;-72
2021/03/05 08:19:04;;;;;;;5.18;1.08;;;2.90;84.20;;;;;;5075231;28;20032;-72
2021/03/05 08:21:59;;;;;;;5.53;1.00;;;3.20;84.00;;;;;;5080431;28;20130;-72
2021/03/05 08:24:27;;;;;;;5.13;1.87;;;3.40;82.30;;;;;;5079566;28;20138;-72
2021/03/05 08:27:31;;;;;;;3.60;0.90;;;3.70;82.70;;;;;;5074397;28;20253;-72
2021/03/05 08:30:00;;;;;;;5.67;0.80;;;4.00;80.70;;;;;;5068034;28;20044;-72
2021/03/05 08:35:12;;;;;;;8.20;1.30;;;4.20;77.10;;;;;;5044899;28;20526;-72
2021/03/05 08:37:56;;;;;;;4.87;1.00;;;4.50;76.50;;;;;;5075124;28;20956;-73
2021/03/05 08:40:24;;;;;;;3.43;0.90;;;4.70;76.60;;;;;;5054292;28;20041;-72
2021/03/05 08:42:52;;;;;;;6.03;1.27;;;4.80;74.30;;;;;;5047179;28;20383;-72
2021/03/05 08:45:29;;;;;;;6.37;0.80;;;4.90;73.90;;;;;;5055952;28;20097;-72
2021/03/05 08:48:00;;;;;;;4.87;0.80;;;5.00;73.10;;;;;;5074619;28;20446;-72
2021/03/05 08:50:35;;;;;;;3.93;0.70;;;5.10;71.10;;;;;;5062266;28;20049;-72
2021/03/05 08:53:06;;;;;;;5.67;1.00;;;5.20;71.80;;;;;;5051939;28;20055;-71
2021/03/05 08:55:34;;;;;;;3.93;0.80;;;5.20;70.40;;;;;;5070432;28;20044;-72
2021/03/05 08:58:00;;;;;;;4.93;0.90;;;5.20;69.90;;;;;;5073892;28;20083;-72
2021/03/05 09:00:30;;;;;;;4.97;0.70;;;5.30;70.50;;;;;;5060063;28;20040;-72
2021/03/05 09:03:07;;;;;;;4.15;0.80;;;5.40;70.30;;;;;;5072640;28;20119;-71
2021/03/05 09:05:37;;;;;;;4.73;0.70;;;5.40;68.80;;;;;;5074271;28;20045;-71
2021/03/05 09:08:03;;;;;;;4.15;0.80;;;5.40;69.00;;;;;;5069869;28;20048;-71
2021/03/05 09:10:43;;;;;;;4.30;1.00;;;5.50;69.50;;;;;;5068432;28;20036;-77
2021/03/05 09:13:10;;;;;;;7.40;1.00;;;5.60;68.50;;;;;;5067814;28;20482;-71
2021/03/05 09:15:43;;;;;;;4.40;0.90;;;5.60;69.80;;;;;;5061803;28;20071;-71
2021/03/05 09:18:15;;;;;;;5.63;0.93;;;5.70;68.40;;;;;;5058434;28;20125;-71
2021/03/05 09:21:01;;;;;;;3.03;0.50;;;5.70;67.40;;;;;;5050541;28;20087;-71
2021/03/05 09:23:37;;;;;;;5.23;0.80;;;5.70;67.90;;;;;;5034761;28;20411;-71
2021/03/05 09:26:09;;;;;;;4.87;0.80;;;5.70;64.60;;;;;;5067700;28;20062;-78
2021/03/05 09:28:42;;;;;;;8.17;0.90;;;5.50;64.40;;;;;;5081467;28;20498;-78
2021/03/05 09:31:10;;;;;;;2.90;0.73;;;5.30;64.10;;;;;;5079264;28;20436;-78
2021/03/05 09:33:44;;;;;;;7.33;0.87;;;5.20;64.70;;;;;;5058601;28;20033;-78
2021/03/05 09:36:16;;;;;;;2.30;0.60;;;5.10;65.80;;;;;;5074082;28;20128;-78
2021/03/05 09:38:44;;;;;;;4.77;0.70;;;5.20;65.70;;;;;;5042268;28;20075;-79
2021/03/05 09:41:13;;;;;;;5.23;0.80;;;5.10;64.90;;;;;;5069885;28;20040;-78
2021/03/05 09:43:40;;;;;;;5.33;1.00;;;5.10;64.60;;;;;;5060394;28;20042;-79
2021/03/05 09:46:24;;;;;;;2.30;0.63;;;5.10;64.90;;;;;;5070610;28;20050;-78
2021/03/05 09:48:53;;;;;;;7.20;0.70;;;5.10;64.30;;;;;;5078525;28;20032;-78
2021/03/05 09:51:20;;;;;;;4.33;0.80;;;5.10;65.00;;;;;;5056944;28;20047;-79
2021/03/05 09:53:54;;;;;;;3.87;0.80;;;5.20;65.70;;;;;;5045982;28;21822;-79
2021/03/05 09:56:23;;;;;;;6.70;0.80;;;5.30;65.40;;;;;;5074728;28;20047;-78
2021/03/05 09:58:56;;;;;;;5.00;0.80;;;5.30;65.50;;;;;;5072282;28;20044;-78
2021/03/05 10:01:23;;;;;;;3.10;0.80;;;5.40;64.40;;;;;;5078360;28;20137;-78
2021/03/05 10:03:56;;;;;;;2.80;0.60;;;5.50;64.10;;;;;;5051348;28;20036;-78
2021/03/05 10:06:22;;;;;;;4.00;0.70;;;5.50;61.70;;;;;;5058823;28;20563;-78
2021/03/05 10:09:10;;;;;;;4.30;0.80;;;5.60;63.50;;;;;;5075354;28;20072;-79
2021/03/05 10:11:41;;;;;;;6.90;1.10;;;5.60;62.30;;;;;;5071467;28;20166;-79
2021/03/05 10:14:07;;;;;;;;;;;5.60;64.00;;;;;;5066586;28;20040;-78
2021/03/05 10:16:37;;;;;;;2.17;0.53;;;5.70;63.60;;;;;;5064029;28;20153;-77
2021/03/05 10:19:16;;;;;;;5.33;0.80;;;5.80;62.40;;;;;;5063424;28;20044;-79
2021/03/05 10:21:47;;;;;;;4.90;0.80;;;5.90;60.40;;;;;;5053952;28;20039;-78
2021/03/05 10:24:15;;;;;;;6.30;0.70;;;5.90;60.90;;;;;;5062518;28;20058;-78
2021/03/05 10:29:26;;;;;;;6.70;0.80;;;5.90;61.20;;;;;;5065763;28;20594;-78
2021/03/05 10:31:54;;;;;;;6.10;0.87;;;5.90;60.80;;;;;;5079525;28;20131;-78
2021/03/05 10:34:28;;;;;;;4.40;0.60;;;5.90;60.60;;;;;;5073887;28;20508;-79
2021/03/05 10:37:04;;;;;;;3.90;0.80;;;5.80;60.10;;;;;;5063801;28;20080;-78
2021/03/05 10:39:34;;;;;;;4.50;0.60;;;5.80;60.00;;;;;;5058621;28;20043;-78
2021/03/05 10:42:05;;;;;;;2.88;0.90;;;5.70;60.80;;;;;;5044671;28;20032;-78
2021/03/05 10:44:33;;;;;;;6.07;1.10;;;5.70;60.30;;;;;;5051312;28;20048;-78
2021/03/05 10:47:04;;;;;;;4.23;0.80;;;5.70;59.80;;;;;;5047150;28;20040;-79
2021/03/05 10:49:31;;;;;;;2.77;0.53;;;5.70;60.70;;;;;;5048740;28;20044;-77
2021/03/05 10:52:00;;;;;;;3.70;0.90;;;5.70;61.10;;;;;;5033869;28;20041;-79
2021/03/05 10:54:26;;;;;;;4.97;0.70;;;5.70;61.90;;;;;;5029696;28;20048;-78
2021/03/05 10:56:53;;;;;;;3.13;0.57;;;5.60;61.90;;;;;;5045734;28;20041;-78
2021/03/05 10:59:20;;;;;;;5.10;0.90;;;5.50;62.20;;;;;;5060089;28;20035;-78
2021/03/05 11:01:47;;;;;;;3.90;0.90;;;5.50;62.50;;;;;;5063598;28;20621;-78
2021/03/05 11:04:15;;;;;;;8.10;1.00;;;5.50;61.40;;;;;;5030823;28;20052;-73
2021/03/05 11:06:43;;;;;;;1.60;0.50;;;5.50;60.10;;;;;;5058671;28;20123;-72
2021/03/05 11:09:10;;;;;;;4.63;0.50;;;5.50;60.20;;;;;;5045572;28;20036;-73
2021/03/05 11:11:36;;;;;;;4.50;0.73;;;5.60;60.30;;;;;;5030619;28;20208;-72
2021/03/05 11:14:05;;;;;;;4.20;1.13;;;5.80;60.40;;;;;;5056398;28;20044;-72
2021/03/05 11:16:37;;;;;;;3.30;0.80;;;5.90;59.90;;;;;;5044291;28;20072;-72
2021/03/05 11:19:05;;;;;;;3.40;0.97;;;6.10;58.50;;;;;;5033053;28;20043;-72
2021/03/05 11:21:32;;;;;;;3.63;0.80;;;6.20;59.70;;;;;;5059574;28;20041;-72
2021/03/05 11:23:58;;;;;;;6.37;0.73;;;6.20;59.70;;;;;;5045150;28;20115;-71
2021/03/05 11:26:25;;;;;;;4.53;0.60;;;6.40;59.50;;;;;;5050962;28;20052;-73
2021/03/05 11:28:52;;;;;;;3.57;0.80;;;6.50;58.60;;;;;;5064761;28;20051;-72
2021/03/05 11:31:22;;;;;;;5.30;0.70;;;6.70;56.80;;;;;;5063872;28;20067;-72
2021/03/05 11:33:51;;;;;;;2.37;0.50;;;6.70;56.20;;;;;;5043184;28;20037;-72
2021/03/05 11:36:21;;;;;;;1.60;0.47;;;6.50;56.40;;;;;;5067521;28;20057;-72
2021/03/05 11:38:52;;;;;;;3.80;0.60;;;6.40;57.10;;;;;;5019545;28;20640;-72
2021/03/05 11:41:21;;;;;;;3.67;0.73;;;6.30;58.20;;;;;;5024045;28;20058;-72
2021/03/05 11:43:54;;;;;;;3.40;0.70;;;6.30;56.40;;;;;;5046927;28;20507;-72
2021/03/05 11:46:22;;;;;;;6.17;1.10;;;6.50;55.00;;;;;;5062322;28;20071;-72
2021/03/05 11:48:48;;;;;;;4.60;0.83;;;6.60;55.20;;;;;;5053618;28;20135;-72
2021/03/05 11:51:16;;;;;;;6.50;2.03;;;6.50;54.90;;;;;;5054269;28;20067;-72
2021/03/05 11:53:42;;;;;;;4.00;0.83;;;6.30;56.30;;;;;;5054089;28;20040;-72
2021/03/05 11:56:11;;;;;;;4.70;1.53;;;6.30;56.50;;;;;;5043544;28;20056;-72
2021/03/05 11:58:38;;;;;;;3.93;0.90;;;6.20;57.40;;;;;;5056048;28;20049;-73
2021/03/05 12:01:04;;;;;;;1.40;0.57;;;6.00;58.70;;;;;;5042195;28;20040;-73
2021/03/05 12:03:32;;;;;;;2.93;0.67;;;6.00;59.00;;;;;;5037239;28;20036;-72
2021/03/05 12:05:58;;;;;;;3.73;0.50;;;6.10;58.70;;;;;;5026010;28;20441;-72
2021/03/05 12:08:24;;;;;;;2.87;0.60;;;6.30;58.60;;;;;;5053689;28;20645;-72
2021/03/05 12:10:51;;;;;;;5.33;0.70;;;6.40;58.00;;;;;;5053009;28;20087;-74
2021/03/05 12:13:17;;;;;;;4.37;0.70;;;6.70;57.70;;;;;;5045833;28;20490;-73
2021/03/05 12:15:43;;;;;;;8.47;0.90;;;6.90;57.30;;;;;;5043948;28;20041;-73
2021/03/05 12:18:09;;;;;;;4.93;0.90;;;6.90;56.00;;;;;;5029177;28;20049;-74
2021/03/05 12:20:36;;;;;;;5.10;0.53;;;6.90;53.70;;;;;;5017292;28;20649;-73
2021/03/05 12:23:03;;;;;;;3.00;0.60;;;6.80;55.50;;;;;;5034445;28;20068;-73
2021/03/05 12:25:55;;;;;;;2.10;0.70;;;6.90;54.60;;;;;;5026751;28;20042;-73
2021/03/05 12:28:40;;;;;;;3.70;0.77;;;7.00;52.60;;;;;;5038883;28;20079;-79
2021/03/05 12:31:26;;;;;;;3.23;0.80;;;7.20;53.40;;;;;;5041927;28;20045;-80
2021/03/05 12:34:12;;;;;;;4.03;0.60;;;7.00;53.70;;;;;;5038400;28;20046;-79
2021/03/05 12:36:59;;;;;;;2.57;0.40;;;7.10;53.30;;;;;;5025223;28;20520;-81
2021/03/05 12:39:45;;;;;;;4.33;0.70;;;7.20;51.10;;;;;;5047246;28;20037;-80
2021/03/05 12:42:11;;;;;;;3.93;0.70;;;7.40;50.10;;;;;;5062831;28;20048;-80
2021/03/05 12:44:37;;;;;;;4.97;0.70;;;7.50;51.70;;;;;;5064150;28;20406;-80
2021/03/05 12:47:04;;;;;;;6.20;0.70;;;7.40;53.00;;;;;;5066038;28;20078;-79
2021/03/05 12:49:30;;;;;;;3.47;0.90;;;7.30;52.60;;;;;;5045148;28;20083;-79
2021/03/05 12:51:55;;;;;;;2.17;0.50;;;7.10;53.50;;;;;;5064026;28;20040;-81
2021/03/05 12:54:21;;;;;;;3.13;0.70;;;7.00;54.70;;;;;;5063795;28;20515;-78
2021/03/05 12:56:47;;;;;;;4.40;1.00;;;7.00;52.70;;;;;;5064581;28;20115;-79
2021/03/05 12:59:13;;;;;;;4.80;0.67;;;7.00;52.80;;;;;;5028752;28;20613;-79
2021/03/05 13:01:39;;;;;;;4.50;0.90;;;7.20;53.30;;;;;;5064406;28;20589;-80
2021/03/05 13:04:05;;;;;;;5.37;0.67;;;7.50;52.10;;;;;;5063847;28;20121;-79
2021/03/05 13:06:32;;;;;;;4.10;0.70;;;7.80;50.00;;;;;;5045458;28;20087;-81
2021/03/05 13:08:58;;;;;;;4.13;0.70;;;7.80;52.30;;;;;;5066148;28;20119;-83